Map

Track Data

SID SEASON NUMBER BASIN SUBBASIN NAME ISO_TIME NATURE LAT LON WMO_WIND WMO_PRES WMO_AGENCY TRACK_TYPE DIST2LAND LANDFALL IFLAG USA_AGENCY USA_ATCF_ID USA_LAT USA_LON USA_RECORD USA_STATUS USA_WIND USA_PRES USA_SSHS USA_R34_NE USA_R34_SE USA_R34_SW USA_R34_NW USA_R50_NE USA_R50_SE USA_R50_SW USA_R50_NW USA_R64_NE USA_R64_SE USA_R64_SW USA_R64_NW USA_POCI USA_ROCI USA_RMW USA_EYE TOKYO_LAT TOKYO_LON TOKYO_GRADE TOKYO_WIND TOKYO_PRES TOKYO_R50_DIR TOKYO_R50_LONG TOKYO_R50_SHORT TOKYO_R30_DIR TOKYO_R30_LONG TOKYO_R30_SHORT TOKYO_LAND CMA_LAT CMA_LON CMA_CAT CMA_WIND CMA_PRES HKO_LAT HKO_LON HKO_CAT HKO_WIND HKO_PRES NEWDELHI_LAT NEWDELHI_LON NEWDELHI_GRADE NEWDELHI_WIND NEWDELHI_PRES NEWDELHI_CI NEWDELHI_DP NEWDELHI_POCI REUNION_LAT REUNION_LON REUNION_TYPE REUNION_WIND REUNION_PRES REUNION_TNUM REUNION_CI REUNION_RMW REUNION_R34_NE REUNION_R34_SE REUNION_R34_SW REUNION_R34_NW REUNION_R50_NE REUNION_R50_SE REUNION_R50_SW REUNION_R50_NW REUNION_R64_NE REUNION_R64_SE REUNION_R64_SW REUNION_R64_NW BOM_LAT BOM_LON BOM_TYPE BOM_WIND BOM_PRES BOM_TNUM BOM_CI BOM_RMW BOM_R34_NE BOM_R34_SE BOM_R34_SW BOM_R34_NW BOM_R50_NE BOM_R50_SE BOM_R50_SW BOM_R50_NW BOM_R64_NE BOM_R64_SE BOM_R64_SW BOM_R64_NW BOM_ROCI BOM_POCI BOM_EYE BOM_POS_METHOD BOM_PRES_METHOD NADI_LAT NADI_LON NADI_CAT NADI_WIND NADI_PRES WELLINGTON_LAT WELLINGTON_LON WELLINGTON_WIND WELLINGTON_PRES DS824_LAT DS824_LON DS824_STAGE DS824_WIND DS824_PRES TD9636_LAT TD9636_LON TD9636_STAGE TD9636_WIND TD9636_PRES TD9635_LAT TD9635_LON TD9635_WIND TD9635_PRES TD9635_ROCI NEUMANN_LAT NEUMANN_LON NEUMANN_CLASS NEUMANN_WIND NEUMANN_PRES MLC_LAT MLC_LON MLC_CLASS MLC_WIND MLC_PRES USA_GUST BOM_GUST BOM_GUST_PER REUNION_GUST REUNION_GUST_PER USA_SEAHGT USA_SEARAD_NE USA_SEARAD_SE USA_SEARAD_SW USA_SEARAD_NW STORM_SPEED STORM_DIR
1931019S14129 1931 6 SI WA NOT_NAMED 1931-01-18 23:00:00 NR -14.1000 129.200 main 31 31 __________O___ -1 -14.1000 129.200 7 6 269
1931019S14129 1931 6 SI WA NOT_NAMED 1931-01-19 00:00:00 NR -14.1013 129.103 main 39 39 __________P___ -1 -14.1013 129.103 7 6 269
1931019S14129 1931 6 SI WA NOT_NAMED 1931-01-19 03:00:00 NR -14.1045 128.816 main 68 68 __________P___ -1 -14.1045 128.816 7 6 270
1931019S14129 1931 6 SI WA NOT_NAMED 1931-01-19 06:00:00 NR -14.1056 128.535 main 74 62 __________P___ -1 -14.1056 128.535 7 5 270
1931019S14129 1931 6 SI WA NOT_NAMED 1931-01-19 09:00:00 NR -14.1037 128.268 main 62 44 __________P___ -1 -14.1037 128.268 7 5 271
1931019S14129 1931 6 SI WA NOT_NAMED 1931-01-19 11:00:00 NR -14.1000 128.100 main 44 34 __________O___ -1 -14.1000 128.100 7 5 271
1931019S14129 1931 6 SI WA NOT_NAMED 1931-01-19 12:00:00 NR -14.0974 128.019 main 34 15 __________P___ -1 -14.0974 128.019 7 5 272
1931019S14129 1931 6 SI WA NOT_NAMED 1931-01-19 15:00:00 NR -14.0886 127.782 main 15 0 __________P___ -1 -14.0886 127.782 7 5 272
1931019S14129 1931 6 SI WA NOT_NAMED 1931-01-19 18:00:00 NR -14.0833 127.530 main 0 0 __________P___ -1 -14.0833 127.530 7 5 270
1931019S14129 1931 6 SI WA NOT_NAMED 1931-01-19 21:00:00 NR -14.0881 127.235 main 0 0 __________P___ -1 -14.0881 127.235 7 6 268
1931019S14129 1931 6 SI WA NOT_NAMED 1931-01-19 23:00:00 NR -14.1000 127.000 main 0 0 __________O___ -1 -14.1000 127.000 7 11 246
1931019S14129 1931 6 SI WA NOT_NAMED 1931-01-19 23:30:00 NR -14.2815 126.786 bom main 0 0 ______O___P___ -1 -15.0000 126.200 -14.1018 126.933 7 28 230
1931019S14129 1931 6 SI WA NOT_NAMED 1931-01-20 00:00:00 NR -14.4003 126.629 main 0 0 ______P___P___ -1 -14.9930 126.159 -14.1039 126.863 7 10 251
1931019S14129 1931 6 SI WA NOT_NAMED 1931-01-20 03:00:00 NR -14.4778 126.193 main 0 0 ______P___P___ -1 -14.9496 125.912 -14.1240 126.404 7 8 261
1931019S14129 1931 6 SI WA NOT_NAMED 1931-01-20 06:00:00 NR -14.5326 125.775 main 10 0 ______P___P___ -1 -14.9014 125.658 -14.1639 125.892 7 8 266
1931019S14129 1931 6 SI WA NOT_NAMED 1931-01-20 09:00:00 NR -14.5388 125.373 main 11 11 ______P___P___ -1 -14.8446 125.389 -14.2330 125.357 7 8 268
1931019S14129 1931 6 SI WA NOT_NAMED 1931-01-20 11:00:00 NR -14.5500 125.100 bom main 15 10 ______O___O___ -1 -14.8000 125.200 -14.3000 125.000 7 8 267
1931019S14129 1931 6 SI WA NOT_NAMED 1931-01-20 12:00:00 NR -14.5610 124.961 main 21 21 ______P___P___ -1 -14.7754 125.101 -14.3466 124.820 7 8 264
1931019S14129 1931 6 SI WA NOT_NAMED 1931-01-20 15:00:00 NR -14.6069 124.531 main 74 74 ______P___P___ -1 -14.6980 124.788 -14.5159 124.274 7 8 263
1931019S14129 1931 6 SI WA NOT_NAMED 1931-01-20 18:00:00 NR -14.6683 124.095 main 93 93 ______P___P___ -1 -14.6290 124.444 -14.7075 123.747 7 8 261
1931019S14129 1931 6 SI WA NOT_NAMED 1931-01-20 21:00:00 NR -14.7397 123.668 main 125 124 ______P___P___ -1 -14.5861 124.066 -14.8933 123.271 7 8 260
1931019S14129 1931 6 SI WA NOT_NAMED 1931-01-20 23:00:00 NR -14.7904 123.396 main 139 139 ______P___O___ -1 -14.5807 123.792 -15.0000 123.000 7 8 260
1931019S14129 1931 6 SI WA NOT_NAMED 1931-01-21 00:00:00 NR -14.8095 123.268 main 148 148 ______P___P___ -1 -14.5870 123.649 -15.0320 122.888 7 7 261
1931019S14129 1931 6 SI WA NOT_NAMED 1931-01-21 01:00:00 NR -14.8296 123.143 bom main 165 165 ______O___P___ -1 -14.6000 123.500 -15.0592 122.787 7 8 263
1931019S14129 1931 6 SI WA NOT_NAMED 1931-01-21 03:00:00 NR -14.8566 122.871 main 168 168 ______P___P___ -1 -14.6096 123.129 -15.1037 122.612 7 8 263
1931019S14129 1931 6 SI WA NOT_NAMED 1931-01-21 06:00:00 NR -14.9090 122.459 main 184 183 ______P___P___ -1 -14.6571 122.516 -15.1609 122.402 7 8 260
1931019S14129 1931 6 SI WA NOT_NAMED 1931-01-21 09:00:00 NR -14.9942 122.048 main 193 193 ______P___P___ -1 -14.7567 121.875 -15.2316 122.221 7 8 256
1931019S14129 1931 6 SI WA NOT_NAMED 1931-01-21 11:00:00 NR -15.0795 121.776 main 196 196 ______P___O___ -1 -14.8590 121.453 -15.3000 122.100 7 9 250
1931019S14129 1931 6 SI WA NOT_NAMED 1931-01-21 12:00:00 NR -15.1411 121.629 main 209 201 ______P___P___ -1 -14.9225 121.249 -15.3598 122.009 7 9 242
1931019S14129 1931 6 SI WA NOT_NAMED 1931-01-21 15:00:00 NR -15.3699 121.207 main 216 216 ______P___P___ -1 -15.1690 120.684 -15.5708 121.730 7 9 236
1931019S14129 1931 6 SI WA NOT_NAMED 1931-01-21 18:00:00 NR -15.6543 120.849 main 223 216 ______P___P___ -1 -15.5112 120.225 -15.7975 121.472 7 9 226
1931019S14129 1931 6 SI WA NOT_NAMED 1931-01-21 20:00:00 NR -15.8687 120.666 bom main 217 217 ______O___P___ -1 -15.8000 120.000 -15.9373 121.332 7 8 216
1931019S14129 1931 6 SI WA NOT_NAMED 1931-01-21 21:00:00 NR -15.9910 120.591 main 219 212 ______P___P___ -1 -15.9827 119.906 -15.9993 121.276 7 8 206
1931019S14129 1931 6 SI WA NOT_NAMED 1931-01-21 23:00:00 NR -16.2316 120.482 main 216 211 ______P___O___ -1 -16.3632 119.764 -16.1000 121.200 7 7 201
1931019S14129 1931 6 SI WA NOT_NAMED 1931-01-22 00:00:00 NR -16.3349 120.454 main 211 207 ______P___P___ -1 -16.5419 119.722 -16.1280 121.187 7 6 193
1931019S14129 1931 6 SI WA NOT_NAMED 1931-01-22 01:00:00 NR -16.4241 120.443 bom main 216 201 ______O___P___ -1 -16.7000 119.700 -16.1482 121.187 7 4 174
1931019S14129 1931 6 SI WA NOT_NAMED 1931-01-22 03:00:00 NR -16.5278 120.477 main 201 187 ______P___P___ -1 -16.8871 119.735 -16.1685 121.219 7 3 126
1931019S14129 1931 6 SI WA NOT_NAMED 1931-01-22 06:00:00 NR -16.5672 120.647 main 187 163 ______P___P___ -1 -16.9737 119.963 -16.1608 121.331 7 4 88
1931019S14129 1931 6 SI WA NOT_NAMED 1931-01-22 09:00:00 NR -16.5147 120.909 main 163 144 ______P___P___ -1 -16.9026 120.331 -16.1267 121.488 7 5 76
1931019S14129 1931 6 SI WA NOT_NAMED 1931-01-22 11:00:00 NR -16.4547 121.108 main 144 140 ______P___O___ -1 -16.8094 120.616 -16.1000 121.600 7 6 72
1931019S14129 1931 6 SI WA NOT_NAMED 1931-01-22 12:00:00 NR -16.4237 121.202 main 140 123 ______P___P___ -1 -16.7585 120.762 -16.0889 121.643 7 6 72
1931019S14129 1931 6 SI WA NOT_NAMED 1931-01-22 15:00:00 NR -16.3370 121.481 main 123 116 ______P___P___ -1 -16.6265 121.178 -16.0474 121.784 7 5 73
1931019S14129 1931 6 SI WA NOT_NAMED 1931-01-22 16:00:00 NR -16.3166 121.567 bom main 116 108 ______O___P___ -1 -16.6000 121.300 -16.0332 121.834 7 5 85
1931019S14129 1931 6 SI WA NOT_NAMED 1931-01-22 18:00:00 NR -16.3177 121.716 main 108 92 ______P___P___ -1 -16.6269 121.495 -16.0085 121.937 7 4 94
1931019S14129 1931 6 SI WA NOT_NAMED 1931-01-22 21:00:00 NR -16.3396 121.926 main 92 77 ______P___P___ -1 -16.6885 121.757 -15.9907 122.095 7 4 99
1931019S14129 1931 6 SI WA NOT_NAMED 1931-01-22 23:00:00 NR -16.3704 122.049 main 77 70 ______P___O___ -1 -16.7409 121.897 -16.0000 122.200 7 4 107
1931019S14129 1931 6 SI WA NOT_NAMED 1931-01-23 00:00:00 NR -16.3919 122.104 main 70 70 ______P___P___ -1 -16.7697 121.954 -16.0141 122.254 7 3 114
1931019S14129 1931 6 SI WA NOT_NAMED 1931-01-23 01:00:00 NR -16.4164 122.154 bom main 63 55 ______O___P___ -1 -16.8000 122.000 -16.0329 122.308 7 3 122
1931019S14129 1931 6 SI WA NOT_NAMED 1931-01-23 03:00:00 NR -16.4739 122.238 main 55 39 ______P___P___ -1 -16.8649 122.060 -16.0830 122.416 7 3 133
1931019S14129 1931 6 SI WA NOT_NAMED 1931-01-23 06:00:00 NR -16.5760 122.334 main 39 33 ______P___P___ -1 -16.9677 122.095 -16.1844 122.574 7 3 140
1931019S14129 1931 6 SI WA NOT_NAMED 1931-01-23 07:00:00 NR -16.6119 122.362 bom main 33 24 ______O___P___ -1 -17.0000 122.100 -16.2237 122.624 7 3 142
1931019S14129 1931 6 SI WA NOT_NAMED 1931-01-23 09:00:00 NR -16.6800 122.421 main 24 21 ______P___P___ -1 -17.0512 122.124 -16.3088 122.717 7 3 141
1931019S14129 1931 6 SI WA NOT_NAMED 1931-01-23 11:00:00 NR -16.7468 122.471 main 21 11 ______P___O___ -1 -17.0937 122.143 -16.4000 122.800 7 2 145
1931019S14129 1931 6 SI WA NOT_NAMED 1931-01-23 12:00:00 NR -16.7777 122.494 main 11 0 ______P___P___ -1 -17.1122 122.150 -16.4433 122.839 7 2 148
1931019S14129 1931 6 SI WA NOT_NAMED 1931-01-23 15:00:00 NR -16.8720 122.554 main 0 0 ______P___P___ -1 -17.1598 122.167 -16.5841 122.940 7 2 153
1931019S14129 1931 6 SI WA NOT_NAMED 1931-01-23 18:00:00 NR -16.9684 122.599 main 0 0 ______P___P___ -1 -17.2001 122.178 -16.7367 123.019 7 2 159
1931019S14129 1931 6 SI WA NOT_NAMED 1931-01-23 21:00:00 NR -17.0669 122.631 main 0 0 ______P___P___ -1 -17.2392 122.187 -16.8947 123.075 7 2 170
1931019S14129 1931 6 SI WA NOT_NAMED 1931-01-23 23:00:00 NR -17.1338 122.646 main 0 0 ______P___O___ -1 -17.2676 122.193 -17.0000 123.100 7 2 0
1931019S14129 1931 6 SI WA NOT_NAMED 1931-01-24 00:00:00 NR -17.1666 122.654 main 0 0 ______P___P___ -1 -17.2832 122.196 -17.0500 123.111 7 2 165
1931019S14129 1931 6 SI WA NOT_NAMED 1931-01-24 01:00:00 NR -17.2000 122.660 bom main 0 0 ______O___P___ -1 -17.3000 122.200 -17.1000 123.120 7 2 168
1931019S14129 1931 6 SI WA NOT_NAMED 1931-01-24 03:00:00 NR -17.2689 122.669 main 0 0 ______P___P___ -1 -17.3379 122.209 -17.2000 123.129 7 2 0
1931019S14129 1931 6 SI WA NOT_NAMED 1931-01-24 06:00:00 NR -17.3773 122.677 main 0 0 ______P___P___ -1 -17.4045 122.226 -17.3500 123.128 7 2 0
1931019S14129 1931 6 SI WA NOT_NAMED 1931-01-24 09:00:00 NR -17.4908 122.680 main 0 0 ______P___P___ -1 -17.4816 122.247 -17.5000 123.114 7 2 0
1931019S14129 1931 6 SI WA NOT_NAMED 1931-01-24 11:00:00 NR -17.5689 122.682 main 0 0 ______P___O___ -1 -17.5379 122.263 -17.6000 123.100 7 2 173
1931019S14129 1931 6 SI WA NOT_NAMED 1931-01-24 12:00:00 NR -17.6087 122.682 main 0 0 ______P___P___ -1 -17.5674 122.272 -17.6500 123.093 7 2 171
1931019S14129 1931 6 SI WA NOT_NAMED 1931-01-24 15:00:00 NR -17.7301 122.684 main 0 0 ______P___P___ -1 -17.6602 122.299 -17.8000 123.069 7 2 188
1931019S14129 1931 6 SI WA NOT_NAMED 1931-01-24 18:00:00 NR -17.8406 122.635 main 0 0 ______P___P___ -1 -17.7586 122.328 -17.9500 123.044 7 2 204
1931019S14129 1931 6 SI WA NOT_NAMED 1931-01-24 21:00:00 NR -17.9405 122.578 main 0 0 ______P___P___ -1 -17.8607 122.358 -18.1000 123.018 7 2 212
1931019S14129 1931 6 SI WA NOT_NAMED 1931-01-24 23:00:00 NR -17.9976 122.534 main 0 0 ______P___O___ -1 -17.9301 122.379 -18.2000 123.000 7 4 262
1931019S14129 1931 6 SI WA NOT_NAMED 1931-01-25 00:00:00 NR -17.9650 122.389 main 0 0 ______P_______ -1 -17.9650 122.389 7 4 269
1931019S14129 1931 6 SI WA NOT_NAMED 1931-01-25 01:00:00 NR -18.0000 122.400 bom main 0 ______O_______ -1 -18.0000 122.400 7 2 152

About IBTrACS Database

This database is a web-friendly format of International Best Track Archive for Climate Stewardship (IBTrACS), a global best track data archive curated by NOAA dating back to 1842.

Updated: 2021-12-08